NEW HOGAN LAKE (NHG)

Elevation: 554' · CALAVERAS R basin · Operator: US Army Corps of Engineers

Provisional data, subject to change.
Query executed Friday at 20:47:58   clock

Select a sensor type for a plot of data.
Note: Reservoir Flows are daily averages.

Earlier

Date RES ELE    STORAGE    RES CHG    TOC STO    ABV TOC    OUTFLOW    INFLOW    FNF    PPT INC    TEMP MN    TEMP MX   
 FEET   AF   AF   AF   AF   CFS   CFS   CFS   INCHES   DEG F   DEG F  
06/02/2016 657.57 128957 -464 317100 -188143 218 15 15 0.00 16 37
06/03/2016 657.39 128495 -462 317100 -188605 220 18 18 0.00 18 38
06/04/2016 657.24 128110 -385 317100 -188990 198 27 27 0.00 20 36
06/05/2016 657.09 127726 -384 317100 -189374 174 11 11 0.00 20 37
06/06/2016 656.96 127394 -332 317100 -189706 151 12 12 0.00 17 37
06/07/2016 656.84 127087 -307 317100 -190013 142 13 13 0.00 14 34
06/08/2016 656.70 126730 -357 317100 -190370 156 0 0 0.00 13 30
06/09/2016 656.56 126374 -356 317100 -190726 164 9 9 0.00 12 30
06/10/2016 656.43 126043 -331 317100 -191057 163 20 20 0.00 14 29
06/11/2016 656.30 125714 -329 317100 -191386 163 22 22 0.00 12 32
06/12/2016 656.15 125333 -381 317100 -191767 182 15 15 0.00 17 32
06/13/2016 656.00 124954 -379 317100 -192146 181 16 16 0.00 14 31
06/14/2016 655.85 124575 -379 317100 -192525 184 16 16 0.00 12 26
06/15/2016 655.68 124147 -428 317100 -192953 192 -3 -3 0.00 9 23
06/16/2016 655.53 123769 -378 317100 -193331 188 19 19 0.00 10 27
06/17/2016 655.40 123443 -326 317100 -193657 177 36 36 0.00 13 30
06/18/2016 655.23 123016 -427 317100 -194084 194 2 2 0.00 15 28
06/19/2016 655.09 122666 -350 317100 -194434 199 48 48 0.00 16 34
06/20/2016 654.95 122316 -350 317100 -194784 180 31 31 0.00 17 36
06/21/2016 654.81 121966 -350 317100 -195134 172 26 26 0.00 16 38
06/22/2016 654.67 121617 -349 317100 -195483 165 19 19 0.00 17 36
06/23/2016 654.53 121269 -348 317100 -195831 166 19 19 0.00 16 34
06/24/2016 654.39 120921 -348 317100 -196179 179 30 30 0.00 16 33
06/25/2016 654.22 120500 -421 317100 -196600 204 22 22 0.00 17 37
06/26/2016 654.04 120055 -445 317100 -197045 218 25 25 0.00 17 39
06/27/2016 653.86 119610 -445 317100 -197490 219 26 26 0.00 19 39
06/28/2016 653.68 119166 -444 317100 -197934 216 23 23 0.00 21 40
06/29/2016 653.50 118724 -442 317100 -198376 218 24 24 0.01 19 38
06/30/2016 653.35 118356 -368 317100 -198744 191 36 36 0.00 16 39
07/01/2016 -- -- -- -- -- -- -- -- -- -- --

Later | Latest

Warning! This data is preliminary and subject to revision.

Show NHG Map | Plot NHG Data | 1 Month NHG Data | Real-Time NHG Data | NHG Info